Time;durP1;ratioP1;P1;durP2;ratioP2;P2;SDS_P1;SDS_P2;PMS_P1;PMS_P2;Temp;Humidity;BMP_temperature;BMP_pressure;BME280_temperature;BME280_humidity;BME280_pressure;Samples;Min_cycle;Max_cycle;Signal;HPM_P1;HPM_P2
2022/10/05 00:02:16;;;;;;;;;;;;;;;9.88;84.63;101133.22;4915996;29;19966;-73
2022/10/05 00:05:20;;;;;;;;;;;;;;;10.08;83.23;101144.63;4933334;29;19986;-72
2022/10/05 00:08:24;;;;;;;;;;;;;;;10.00;83.77;101137.13;4932790;29;19942;-73
2022/10/05 00:11:27;;;;;;;;;;;;;;;9.84;84.30;101126.44;4916460;29;20331;-73
2022/10/05 00:14:33;;;;;;;;;;;;;;;9.84;84.33;101128.19;4914076;29;19934;-73
2022/10/05 00:17:37;;;;;;;;;;;;;;;9.75;84.26;101134.63;4923221;29;20294;-73
2022/10/05 00:20:41;;;;;;;;;;;;;;;9.61;83.46;101129.09;4933541;29;19977;-73
2022/10/05 00:23:44;;;;;;;;;;;;;;;9.67;83.72;101128.88;4933654;29;19926;-73
2022/10/05 00:26:49;;;;;;;;;;;;;;;9.79;83.58;101130.97;4931572;29;19922;-73
2022/10/05 00:29:56;;;;;;;;;;;;;;;9.65;84.08;101131.53;4920802;29;19922;-73
2022/10/05 00:33:01;;;;;;;;;;;;;;;9.84;83.42;101136.03;4919829;29;19964;-73
2022/10/05 00:36:05;;;;;;;;;;;;;;;9.84;82.73;101133.41;4931459;29;19970;-73
2022/10/05 00:39:09;;;;;;;;;;;;;;;9.78;82.85;101130.13;4932967;29;19922;-73
2022/10/05 00:42:16;;;;;;;;;;;;;;;9.69;82.92;101132.25;4932670;29;19930;-73
2022/10/05 00:45:23;;;;;;;;;;;;;;;9.85;82.29;101130.72;4928983;29;19981;-73
2022/10/05 00:48:27;;;;;;;;;;;;;;;9.56;83.61;101129.25;4913496;29;19922;-73
2022/10/05 00:51:36;;;;;;;;;;;;;;;9.68;83.46;101133.16;4913906;29;20069;-73
2022/10/05 00:54:45;;;;;;;;;;;;;;;9.60;83.49;101132.59;4912606;29;20507;-73
2022/10/05 00:58:01;;;;;;;;;;;;;;;9.59;83.55;101141.34;4911752;29;19974;-73
2022/10/05 01:01:11;;;;;;;;;;;;;;;9.48;83.79;101140.00;4926058;29;19937;-72
2022/10/05 01:04:15;;;;;;;;;;;;;;;9.62;83.24;101141.22;4931596;29;20388;-73
2022/10/05 01:07:29;;;;;;;;;;;;;;;9.54;83.96;101131.94;4944492;29;20433;-72
2022/10/05 01:10:44;;;;;;;;;;;;;;;9.78;83.09;101137.13;4922872;29;20402;-72
2022/10/05 01:13:56;;;;;;;;;;;;;;;9.77;83.37;101130.19;4913832;29;19921;-73
2022/10/05 01:17:24;;;;;;;;;;;;;;;9.67;83.30;101126.25;4932419;29;19922;-72
2022/10/05 01:20:39;;;;;;;;;;;;;;;9.64;83.33;101118.53;4935554;29;19929;-72
2022/10/05 01:24:01;;;;;;;;;;;;;;;9.70;82.68;101107.81;4924328;29;19921;-73
2022/10/05 01:27:24;;;;;;;;;;;;;;;9.50;83.61;101101.63;4901563;29;19926;-73
2022/10/05 01:30:34;;;;;;;;;;;;;;;9.46;83.86;101096.59;4894630;29;20283;-72
2022/10/05 01:33:40;;;;;;;;;;;;;;;9.28;84.60;101085.06;4883331;29;19967;-73
2022/10/05 01:36:54;;;;;;;;;;;;;;;9.26;84.90;101071.25;4895186;29;19922;-73
2022/10/05 01:40:05;;;;;;;;;;;;;;;9.33;84.44;101067.50;4894460;29;20427;-72
2022/10/05 01:43:08;;;;;;;;;;;;;;;9.42;84.35;101067.16;4900312;29;19962;-73
2022/10/05 01:46:15;;;;;;;;;;;;;;;9.37;84.60;101061.25;4900416;29;19922;-73
2022/10/05 01:49:29;;;;;;;;;;;;;;;9.43;83.88;101068.00;4912772;29;20279;-73
2022/10/05 01:52:32;;;;;;;;;;;;;;;9.48;82.83;101055.63;4912957;29;20050;-73
2022/10/05 01:55:39;;;;;;;;;;;;;;;9.44;82.57;101052.25;4901035;29;20010;-73
2022/10/05 01:58:48;;;;;;;;;;;;;;;9.49;82.48;101036.44;4900447;29;19947;-73
2022/10/05 02:01:58;;;;;;;;;;;;;;;9.46;83.06;101032.19;4901304;29;19971;-73
2022/10/05 02:05:05;;;;;;;;;;;;;;;9.32;83.61;101037.94;4912842;29;19921;-73
2022/10/05 02:08:12;;;;;;;;;;;;;;;9.27;84.17;101036.41;4904240;29;19922;-73
2022/10/05 02:11:17;;;;;;;;;;;;;;;9.36;83.50;101036.06;4881337;29;20193;-73
2022/10/05 02:14:23;;;;;;;;;;;;;;;9.25;84.23;101039.09;4892672;29;19926;-73
2022/10/05 02:17:35;;;;;;;;;;;;;;;9.21;83.69;101041.88;4892757;29;20181;-73
2022/10/05 02:20:41;;;;;;;;;;;;;;;9.32;83.30;101050.16;4892627;29;20371;-72
2022/10/05 02:23:47;;;;;;;;;;;;;;;9.20;83.83;101045.41;4885983;29;19926;-72
2022/10/05 02:26:51;;;;;;;;;;;;;;;9.25;84.33;101061.72;4892407;29;20023;-73
2022/10/05 02:29:58;;;;;;;;;;;;;;;9.26;84.51;101053.84;4882027;29;19938;-73
2022/10/05 02:33:09;;;;;;;;;;;;;;;9.30;83.85;101057.19;4881885;29;20343;-73
2022/10/05 02:36:15;;;;;;;;;;;;;;;9.34;83.01;101056.13;4892305;29;19922;-73
2022/10/05 02:39:28;;;;;;;;;;;;;;;9.21;83.35;101062.75;4881237;29;19974;-72
2022/10/05 02:42:40;;;;;;;;;;;;;;;9.07;83.53;101071.94;4884693;29;19971;-73
2022/10/05 02:45:55;;;;;;;;;;;;;;;9.13;83.47;101070.03;4873306;29;19923;-73
2022/10/05 02:49:00;;;;;;;;;;;;;;;9.08;83.58;101075.41;4884757;29;19922;-72
2022/10/05 02:52:20;;;;;;;;;;;;;;;9.12;82.82;101084.81;4890579;29;19926;-72
2022/10/05 02:55:28;;;;;;;;;;;;;;;9.02;83.58;101086.91;4895414;29;19922;-72
2022/10/05 02:58:40;;;;;;;;;;;;;;;9.03;84.56;101080.81;4899406;29;20026;-72
2022/10/05 03:01:43;;;;;;;;;;;;;;;8.71;86.42;101076.75;4901325;29;20180;-72
2022/10/05 03:05:02;;;;;;;;;;;;;;;8.92;85.46;101077.72;4900741;29;20020;-72
2022/10/05 03:08:08;;;;;;;;;;;;;;;8.80;85.98;101078.16;4892843;29;19973;-72
2022/10/05 03:11:11;;;;;;;;;;;;;;;9.10;84.54;101085.78;4927389;29;19926;-72
2022/10/05 03:14:18;;;;;;;;;;;;;;;8.96;85.56;101088.88;4918061;29;20282;-73
2022/10/05 03:17:24;;;;;;;;;;;;;;;8.89;85.30;101083.03;4928518;29;20335;-73
2022/10/05 03:20:34;;;;;;;;;;;;;;;9.03;85.38;101085.13;4917581;29;20290;-73
2022/10/05 03:23:50;;;;;;;;;;;;;;;9.02;84.46;101079.09;4918809;29;20419;-72
2022/10/05 03:27:05;;;;;;;;;;;;;;;8.98;84.43;101077.50;4918220;29;19938;-73
2022/10/05 03:30:18;;;;;;;;;;;;;;;9.02;83.46;101078.22;4917870;29;19937;-73
2022/10/05 03:33:42;;;;;;;;;;;;;;;9.03;83.33;101072.09;4918289;29;19922;-72
2022/10/05 03:36:47;;;;;;;;;;;;;;;8.78;83.58;101064.34;4918212;29;19922;-73
2022/10/05 03:39:56;;;;;;;;;;;;;;;8.77;83.71;101060.03;4918606;29;20274;-73
2022/10/05 03:43:13;;;;;;;;;;;;;;;8.72;83.91;101070.63;4917562;29;19938;-72
2022/10/05 03:46:17;;;;;;;;;;;;;;;8.70;84.65;101071.59;4917281;29;19963;-73
2022/10/05 03:49:27;;;;;;;;;;;;;;;8.81;84.08;101070.31;4917653;29;20043;-73
2022/10/05 03:52:33;;;;;;;;;;;;;;;8.80;83.91;101081.63;4918326;29;19972;-73
2022/10/05 03:55:55;;;;;;;;;;;;;;;8.92;82.92;101072.50;4917492;29;20022;-73
2022/10/05 03:59:17;;;;;;;;;;;;;;;9.02;82.33;101073.88;4929244;29;19926;-73
2022/10/05 04:02:43;;;;;;;;;;;;;;;8.93;82.19;101073.34;4918618;29;19962;-73
2022/10/05 04:05:50;;;;;;;;;;;;;;;9.04;81.87;101082.50;4919146;29;19962;-72
2022/10/05 04:09:02;;;;;;;;;;;;;;;9.23;81.40;101079.22;4917440;29;19922;-73
2022/10/05 04:12:26;;;;;;;;;;;;;;;9.18;81.73;101073.28;4928896;29;20066;-73
2022/10/05 04:15:53;;;;;;;;;;;;;;;9.13;81.86;101075.25;4917872;29;20413;-72
2022/10/05 04:19:13;;;;;;;;;;;;;;;9.07;82.29;101077.16;4917584;29;19922;-73
2022/10/05 04:22:40;;;;;;;;;;;;;;;9.01;82.35;101074.78;4928302;29;20511;-72
2022/10/05 04:25:46;;;;;;;;;;;;;;;9.07;81.93;101071.09;4902054;29;19946;-73
2022/10/05 04:29:17;;;;;;;;;;;;;;;8.97;82.29;101065.38;4911114;29;19939;-73
2022/10/05 04:32:28;;;;;;;;;;;;;;;8.98;82.46;101067.06;4912540;29;19930;-73
2022/10/05 04:35:51;;;;;;;;;;;;;;;9.02;82.57;101067.81;4914173;29;20497;-73
2022/10/05 04:38:59;;;;;;;;;;;;;;;9.00;82.92;101075.69;4914673;29;19922;-72
2022/10/05 04:42:11;;;;;;;;;;;;;;;8.95;83.01;101072.41;4913344;29;19966;-72
2022/10/05 04:45:33;;;;;;;;;;;;;;;8.91;83.25;101069.97;4901916;29;20689;-72
2022/10/05 04:48:45;;;;;;;;;;;;;;;8.97;83.40;101069.75;4911929;29;19941;-72
2022/10/05 04:51:54;;;;;;;;;;;;;;;9.00;82.65;101072.25;4888857;29;20437;-72
2022/10/05 04:55:13;;;;;;;;;;;;;;;8.97;82.26;101070.59;4904191;29;20418;-72
2022/10/05 04:58:17;;;;;;;;;;;;;;;8.95;82.34;101072.41;4902179;29;20389;-72
2022/10/05 05:01:31;;;;;;;;;;;;;;;8.96;82.44;101078.47;4901683;29;19962;-72
2022/10/05 05:04:41;;;;;;;;;;;;;;;9.20;81.45;101072.34;4914567;29;19941;-73
2022/10/05 05:07:45;;;;;;;;;;;;;;;8.98;82.16;101082.72;4903260;29;19921;-73
2022/10/05 05:10:53;;;;;;;;;;;;;;;9.05;81.99;101078.13;4874726;29;19926;-73
2022/10/05 05:13:59;;;;;;;;;;;;;;;8.97;82.49;101080.19;4892268;29;19993;-73
2022/10/05 05:17:33;;;;;;;;;;;;;;;9.04;81.66;101077.28;4889711;29;19944;-73
2022/10/05 05:20:57;;;;;;;;;;;;;;;9.00;81.32;101078.31;4853091;29;19922;-73
2022/10/05 05:24:03;;;;;;;;;;;;;;;9.17;80.83;101072.44;4890642;29;19934;-73
2022/10/05 05:27:07;;;;;;;;;;;;;;;9.04;81.81;101077.28;4906357;29;20598;-73
2022/10/05 05:30:15;;;;;;;;;;;;;;;9.10;81.92;101070.13;4908783;29;19978;-74
2022/10/05 05:33:22;;;;;;;;;;;;;;;9.08;82.12;101089.28;4895407;29;19927;-73
2022/10/05 05:36:40;;;;;;;;;;;;;;;9.06;82.43;101075.47;4893801;29;20006;-73
2022/10/05 05:40:08;;;;;;;;;;;;;;;9.04;82.69;101072.06;4894167;29;19951;-73
2022/10/05 05:43:22;;;;;;;;;;;;;;;8.93;83.37;101082.03;4893037;29;19923;-73
2022/10/05 05:46:37;;;;;;;;;;;;;;;9.03;82.75;101086.03;4893732;29;20368;-73
2022/10/05 05:49:41;;;;;;;;;;;;;;;9.16;81.73;101069.91;4892790;29;19930;-73
2022/10/05 05:52:50;;;;;;;;;;;;;;;9.02;82.18;101066.03;4892066;29;20292;-73
2022/10/05 05:56:13;;;;;;;;;;;;;;;9.09;81.97;101066.66;4894373;29;19967;-73
2022/10/05 05:59:39;;;;;;;;;;;;;;;8.97;82.27;101078.41;4895243;29;19922;-73
2022/10/05 06:02:51;;;;;;;;;;;;;;;9.06;81.76;101070.25;4894269;29;19926;-73
2022/10/05 06:05:59;;;;;;;;;;;;;;;9.09;81.39;101069.25;4893155;29;20356;-73
2022/10/05 06:09:24;;;;;;;;;;;;;;;9.12;81.22;101073.53;4893940;29;19930;-73
2022/10/05 06:12:42;;;;;;;;;;;;;;;9.00;81.84;101070.47;4888983;29;20329;-73
2022/10/05 06:16:05;;;;;;;;;;;;;;;9.02;82.06;101073.00;4882335;29;19923;-73
2022/10/05 06:19:12;;;;;;;;;;;;;;;9.04;82.13;101072.06;4883518;29;19970;-73
2022/10/05 06:22:22;;;;;;;;;;;;;;;9.12;81.97;101068.31;4885862;29;19958;-73
2022/10/05 06:25:27;;;;;;;;;;;;;;;9.23;81.61;101066.16;4864412;29;19972;-73
2022/10/05 06:28:32;;;;;;;;;;;;;;;9.21;81.81;101062.75;4864290;29;20386;-73
2022/10/05 06:31:51;;;;;;;;;;;;;;;9.16;82.07;101056.88;4871622;29;19945;-73
2022/10/05 06:35:06;;;;;;;;;;;;;;;9.28;81.80;101069.44;4888005;29;19986;-73
2022/10/05 06:38:11;;;;;;;;;;;;;;;9.34;81.55;101069.19;4866645;29;19922;-74
2022/10/05 06:41:15;;;;;;;;;;;;;;;9.52;81.02;101073.72;4884942;29;19922;-73
2022/10/05 06:44:26;;;;;;;;;;;;;;;9.14;82.57;101067.34;4882444;29;19966;-73
2022/10/05 06:48:08;;;;;;;;;;;;;;;9.20;82.40;101061.91;4898455;29;19925;-73
2022/10/05 06:51:49;;;;;;;;;;;;;;;9.20;82.57;101061.06;4877108;29;20435;-73
2022/10/05 06:55:06;;;;;;;;;;;;;;;9.21;82.54;101065.34;4878257;29;19923;-73
2022/10/05 06:58:19;;;;;;;;;;;;;;;9.14;82.44;101071.72;4880460;29;19922;-73
2022/10/05 07:01:34;;;;;;;;;;;;;;;9.32;82.27;101071.03;4883362;29;19925;-73
2022/10/05 07:04:44;;;;;;;;;;;;;;;9.20;82.92;101063.66;4895457;29;19958;-73
2022/10/05 07:07:48;;;;;;;;;;;;;;;9.13;83.04;101062.19;4894793;29;19926;-73
2022/10/05 07:11:10;;;;;;;;;;;;;;;9.16;82.66;101062.09;4909389;29;19926;-73
2022/10/05 07:14:23;;;;;;;;;;;;;;;9.22;82.91;101064.44;4914403;29;19955;-73
2022/10/05 07:17:30;;;;;;;;;;;;;;;9.20;82.96;101061.91;4913372;29;20017;-73
2022/10/05 07:20:49;;;;;;;;;;;;;;;9.21;82.84;101060.13;4896459;29;19922;-73
2022/10/05 07:23:54;;;;;;;;;;;;;;;9.18;83.10;101062.88;4885068;29;19966;-73
2022/10/05 07:27:11;;;;;;;;;;;;;;;9.23;83.14;101056.56;4885689;29;19921;-73
2022/10/05 07:30:15;;;;;;;;;;;;;;;9.26;82.81;101060.81;4894809;29;19922;-73
2022/10/05 07:33:24;;;;;;;;;;;;;;;9.43;82.28;101055.78;4902405;29;19925;-73
2022/10/05 07:40:04;;;;;;;;;;;;;;;9.50;83.04;101051.19;4915988;29;19943;-74
2022/10/05 07:43:20;;;;;;;;;;;;;;;9.51;82.46;101052.91;4901550;29;19922;-74
2022/10/05 07:46:42;;;;;;;;;;;;;;;9.49;83.23;101050.34;4901484;29;19922;-74
2022/10/05 07:49:50;;;;;;;;;;;;;;;9.51;84.13;101051.13;4902981;29;19922;-74
2022/10/05 07:52:56;;;;;;;;;;;;;;;9.50;84.28;101044.19;4913445;29;19942;-74
2022/10/05 07:56:04;;;;;;;;;;;;;;;9.65;84.31;101041.91;4902174;29;19967;-74
2022/10/05 07:59:26;;;;;;;;;;;;;;;9.66;84.30;101043.59;4912917;29;20431;-74
2022/10/05 08:02:43;;;;;;;;;;;;;;;9.70;84.19;101035.59;4913442;29;19921;-75
2022/10/05 08:05:46;;;;;;;;;;;;;;;9.72;84.26;101032.91;4913131;29;20055;-74
2022/10/05 08:09:05;;;;;;;;;;;;;;;9.82;84.20;101042.03;4914615;29;20370;-74
2022/10/05 08:12:12;;;;;;;;;;;;;;;9.83;84.05;101042.91;4913455;29;19926;-74
2022/10/05 08:15:19;;;;;;;;;;;;;;;9.88;84.23;101041.81;4925014;29;19925;-74
2022/10/05 08:18:22;;;;;;;;;;;;;;;10.00;83.71;101043.91;4932438;29;19985;-74
2022/10/05 08:21:32;;;;;;;;;;;;;;;9.81;86.18;101037.75;4933580;29;19969;-75
2022/10/05 08:24:48;;;;;;;;;;;;;;;9.73;86.60;101034.59;4934039;29;19921;-75
2022/10/05 08:27:55;;;;;;;;;;;;;;;9.88;87.14;101028.75;4933943;29;19921;-75
2022/10/05 08:31:11;;;;;;;;;;;;;;;10.11;86.86;101025.16;4895228;29;20011;-74
2022/10/05 08:34:22;;;;;;;;;;;;;;;10.45;85.71;101021.97;4894706;29;19922;-74
2022/10/05 08:37:27;;;;;;;;;;;;;;;10.76;85.68;101027.63;4894516;29;20386;-74
2022/10/05 08:40:52;;;;;;;;;;;;;;;10.97;85.38;101026.63;4894848;29;19922;-74
2022/10/05 08:43:58;;;;;;;;;;;;;;;10.76;89.31;101027.63;4921781;29;20400;-75
2022/10/05 08:47:02;;;;;;;;;;;;;;;10.88;87.68;101027.94;4934495;29;19942;-74
2022/10/05 08:50:07;;;;;;;;;;;;;;;11.24;85.57;101024.53;4933139;29;19925;-74
2022/10/05 08:53:19;;;;;;;;;;;;;;;11.31;85.58;101025.94;4932051;29;20019;-74
2022/10/05 08:56:42;;;;;;;;;;;;;;;11.39;85.34;101029.03;4932562;29;19929;-74
2022/10/05 09:00:04;;;;;;;;;;;;;;;11.49;86.38;101024.22;4931631;29;19921;-74
2022/10/05 09:03:16;;;;;;;;;;;;;;;11.60;86.46;101016.66;4931490;29;19925;-74
2022/10/05 09:06:46;;;;;;;;;;;;;;;11.78;85.64;101009.69;4914027;29;19970;-74
2022/10/05 09:10:08;;;;;;;;;;;;;;;11.95;85.26;101008.88;4903974;29;19974;-74
2022/10/05 09:13:24;;;;;;;;;;;;;;;12.05;85.38;101012.72;4911371;29;20458;-74
2022/10/05 09:16:40;;;;;;;;;;;;;;;12.21;84.21;101012.78;4912264;29;20343;-74
2022/10/05 09:19:50;;;;;;;;;;;;;;;12.30;85.06;101004.44;4924326;29;19926;-74
2022/10/05 09:22:53;;;;;;;;;;;;;;;12.34;86.26;101003.34;4917411;29;19946;-74
2022/10/05 09:26:06;;;;;;;;;;;;;;;12.50;85.75;101007.81;4896112;29;19970;-74
2022/10/05 09:29:13;;;;;;;;;;;;;;;12.64;85.16;101007.94;4912354;29;19966;-74
2022/10/05 09:32:17;;;;;;;;;;;;;;;12.70;85.07;100989.25;4929119;29;20023;-75
2022/10/05 09:35:39;;;;;;;;;;;;;;;12.75;86.08;100992.47;4932282;29;19930;-74
2022/10/05 09:39:01;;;;;;;;;;;;;;;12.71;85.58;100980.44;4931711;29;20038;-74
2022/10/05 09:42:05;;;;;;;;;;;;;;;12.55;88.39;100984.81;4913874;29;19962;-74
2022/10/05 09:45:15;;;;;;;;;;;;;;;12.55;91.12;100975.16;4914540;29;19998;-74
2022/10/05 09:48:24;;;;;;;;;;;;;;;12.70;91.27;100970.88;4914071;29;20461;-74
2022/10/05 09:51:34;;;;;;;;;;;;;;;12.89;90.42;100977.72;4900962;29;20001;-74
2022/10/05 09:54:47;;;;;;;;;;;;;;;13.06;89.16;100969.78;4911630;29;19921;-74
2022/10/05 09:57:55;;;;;;;;;;;;;;;13.17;90.19;100967.41;4913129;29;20331;-74
2022/10/05 10:01:19;;;;;;;;;;;;;;;13.54;88.56;100970.63;4912797;29;19937;-75
2022/10/05 10:04:29;;;;;;;;;;;;;;;13.59;87.53;100963.31;4912369;29;19970;-74
2022/10/05 10:07:40;;;;;;;;;;;;;;;13.66;87.08;100964.66;4910438;29;19922;-75
2022/10/05 10:10:43;;;;;;;;;;;;;;;13.76;87.15;100964.97;4925011;29;20405;-75
2022/10/05 10:14:12;;;;;;;;;;;;;;;13.75;86.82;100962.41;4919499;29;19969;-74
2022/10/05 10:17:21;;;;;;;;;;;;;;;13.81;86.87;100965.50;4931823;29;19921;-74
2022/10/05 10:20:25;;;;;;;;;;;;;;;13.85;86.55;100963.59;4931655;29;19922;-74
2022/10/05 10:23:47;;;;;;;;;;;;;;;13.85;86.16;100967.06;4919157;29;19921;-74
2022/10/05 10:26:57;;;;;;;;;;;;;;;13.98;88.09;100959.28;4929408;29;20429;-75
2022/10/05 10:30:20;;;;;;;;;;;;;;;14.06;85.90;100948.28;4930780;29;19936;-74
2022/10/05 10:33:42;;;;;;;;;;;;;;;14.02;85.82;100939.75;4919050;29;20152;-75
2022/10/05 10:36:45;;;;;;;;;;;;;;;14.13;86.04;100941.72;4914029;29;20017;-74
2022/10/05 10:39:52;;;;;;;;;;;;;;;14.24;85.51;100948.97;4913041;29;20031;-74
2022/10/05 10:43:14;;;;;;;;;;;;;;;14.31;84.30;100950.28;4892508;29;20335;-74
2022/10/05 10:46:20;;;;;;;;;;;;;;;14.32;84.30;100936.19;4929807;29;19946;-73
2022/10/05 10:49:29;;;;;;;;;;;;;;;14.60;83.20;100941.47;4929349;29;19937;-73
2022/10/05 10:52:36;;;;;;;;;;;;;;;14.51;83.67;100939.41;4917136;29;20028;-72
2022/10/05 10:55:58;;;;;;;;;;;;;;;14.55;85.23;100938.31;4910902;29;19961;-73
2022/10/05 10:59:25;;;;;;;;;;;;;;;14.68;83.07;100932.25;4911215;29;20298;-74
2022/10/05 11:02:38;;;;;;;;;;;;;;;14.77;82.06;100936.94;4911534;29;20274;-73
2022/10/05 11:05:51;;;;;;;;;;;;;;;14.89;82.73;100918.56;4912440;29;19963;-74
2022/10/05 11:09:04;;;;;;;;;;;;;;;14.84;83.16;100920.66;4912675;29;19970;-73
2022/10/05 11:12:08;;;;;;;;;;;;;;;15.00;82.09;100923.16;4911887;29;19923;-74
2022/10/05 11:15:12;;;;;;;;;;;;;;;15.08;80.49;100915.59;4911998;29;19974;-73
2022/10/05 11:18:15;;;;;;;;;;;;;;;15.24;81.11;100915.44;4914550;29;19967;-73
2022/10/05 11:21:27;;;;;;;;;;;;;;;15.26;80.76;100912.72;4914499;29;19942;-73
2022/10/05 11:24:40;;;;;;;;;;;;;;;15.24;79.91;100898.78;4913783;29;19926;-74
2022/10/05 11:27:49;;;;;;;;;;;;;;;15.40;79.51;100899.47;4915672;29;19925;-74
2022/10/05 11:31:06;;;;;;;;;;;;;;;15.63;79.99;100900.56;4915218;29;19930;-75
2022/10/05 11:34:28;;;;;;;;;;;;;;;15.87;78.60;100892.81;4913572;29;19922;-75
2022/10/05 11:37:38;;;;;;;;;;;;;;;15.82;77.34;100889.63;4914761;29;19939;-74
2022/10/05 11:41:01;;;;;;;;;;;;;;;15.88;76.90;100883.94;4903291;29;19922;-74
2022/10/05 11:44:11;;;;;;;;;;;;;;;16.04;76.64;100889.00;4914178;29;20449;-74
2022/10/05 11:47:18;;;;;;;;;;;;;;;16.14;75.63;100881.28;4912891;29;19998;-74
2022/10/05 11:50:26;;;;;;;;;;;;;;;16.36;74.52;100880.63;4929338;29;19948;-73
2022/10/05 11:53:39;;;;;;;;;;;;;;;16.58;73.51;100877.31;4913715;29;19970;-73
2022/10/05 11:56:50;;;;;;;;;;;;;;;16.85;72.43;100879.78;4893172;29;20013;-74
2022/10/05 12:00:02;;;;;;;;;;;;;;;16.85;72.45;100874.50;4894934;29;19926;-74
2022/10/05 12:03:32;;;;;;;;;;;;;;;16.87;72.04;100868.16;4901992;29;20011;-74
2022/10/05 12:06:54;;;;;;;;;;;;;;;16.86;72.43;100861.19;4916373;29;19945;-74
2022/10/05 12:10:13;;;;;;;;;;;;;;;17.24;71.03;100868.06;4916565;29;20058;-73
2022/10/05 12:13:19;;;;;;;;;;;;;;;17.34;71.67;100855.84;4915514;29;20418;-73
2022/10/05 12:16:27;;;;;;;;;;;;;;;17.43;73.11;100839.28;4914946;29;19921;-73
2022/10/05 12:19:35;;;;;;;;;;;;;;;17.80;70.29;100846.22;4894730;29;19921;-73
2022/10/05 12:22:45;;;;;;;;;;;;;;;17.98;68.74;100839.50;4903008;29;20427;-73
2022/10/05 12:26:01;;;;;;;;;;;;;;;18.33;69.99;100849.97;4914869;29;20278;-74
2022/10/05 12:29:23;;;;;;;;;;;;;;;19.68;63.59;100838.84;4913986;29;19921;-73
2022/10/05 12:32:32;;;;;;;;;;;;;;;22.66;53.65;100832.88;4914121;29;20401;-74
2022/10/05 12:35:37;;;;;;;;;;;;;;;26.21;44.16;100815.75;4914586;29;20406;-74
2022/10/05 12:39:00;;;;;;;;;;;;;;;26.64;41.57;100816.16;4914632;29;19922;-73
2022/10/05 12:42:13;;;;;;;;;;;;;;;26.13;42.02;100811.25;4911789;29;20457;-74
2022/10/05 12:45:28;;;;;;;;;;;;;;;28.52;37.36;100798.94;4894374;29;19967;-74
2022/10/05 12:49:08;;;;;;;;;;;;;;;28.02;37.55;100805.19;4913505;29;20386;-74
2022/10/05 12:52:23;;;;;;;;;;;;;;;28.58;37.23;100799.22;4854968;29;19927;-74
2022/10/05 12:55:39;;;;;;;;;;;;;;;27.28;39.60;100803.28;4914030;29;19962;-74
2022/10/05 12:58:58;;;;;;;;;;;;;;;28.87;35.82;100772.16;4913790;29;20387;-74
2022/10/05 13:02:15;;;;;;;;;;;;;;;27.50;38.50;100780.03;4912814;29;19914;-74
2022/10/05 13:05:26;;;;;;;;;;;;;;;26.84;40.44;100792.41;4912374;29;20020;-73
2022/10/05 13:08:41;;;;;;;;;;;;;;;25.18;43.89;100787.06;4912592;29;19922;-73
2022/10/05 13:11:47;;;;;;;;;;;;;;;24.73;46.16;100793.72;4913037;29;19973;-73
2022/10/05 13:15:17;;;;;;;;;;;;;;;23.05;49.64;100773.91;4912440;29;19923;-73
2022/10/05 13:18:24;;;;;;;;;;;;;;;22.74;50.88;100782.28;4903472;29;19922;-74
2022/10/05 13:21:37;;;;;;;;;;;;;;;21.98;52.59;100779.94;4913275;29;19922;-74
2022/10/05 13:25:00;;;;;;;;;;;;;;;21.47;53.52;100775.94;4923356;29;19922;-76
2022/10/05 13:28:10;;;;;;;;;;;;;;;21.32;53.80;100767.56;4917532;29;19943;-74
2022/10/05 13:31:22;;;;;;;;;;;;;;;20.83;55.68;100764.13;4893210;29;19927;-74
2022/10/05 13:34:46;;;;;;;;;;;;;;;20.76;55.53;100763.84;4893979;29;19922;-74
2022/10/05 13:38:01;;;;;;;;;;;;;;;20.59;59.84;100772.53;4913669;29;19926;-74
2022/10/05 13:41:14;;;;;;;;;;;;;;;20.54;57.35;100766.78;4913041;29;20418;-74
2022/10/05 13:44:25;;;;;;;;;;;;;;;20.42;58.03;100766.03;4911534;29;20315;-74
2022/10/05 13:47:48;;;;;;;;;;;;;;;20.33;57.46;100769.53;4912981;29;19922;-74
2022/10/05 13:51:05;;;;;;;;;;;;;;;20.43;56.34;100767.72;4912394;29;19922;-74
2022/10/05 13:54:27;;;;;;;;;;;;;;;20.42;55.83;100763.38;4921270;29;20426;-74
2022/10/05 13:57:45;;;;;;;;;;;;;;;20.38;55.48;100767.28;4926733;29;20013;-74
2022/10/05 14:00:58;;;;;;;;;;;;;;;20.30;56.00;100767.16;4911878;29;19962;-74
2022/10/05 14:04:19;;;;;;;;;;;;;;;20.42;55.42;100752.75;4911764;29;19922;-74
2022/10/05 14:07:47;;;;;;;;;;;;;;;20.37;55.99;100755.00;4912306;29;20013;-74
2022/10/05 14:10:52;;;;;;;;;;;;;;;20.39;55.10;100747.75;4903144;29;19929;-74
2022/10/05 14:14:24;;;;;;;;;;;;;;;20.33;55.32;100727.88;4893450;29;20474;-74
2022/10/05 14:17:32;;;;;;;;;;;;;;;20.43;55.39;100731.38;4896721;29;20378;-75
2022/10/05 14:20:37;;;;;;;;;;;;;;;20.30;59.20;100730.00;4901973;29;20387;-74
2022/10/05 14:23:41;;;;;;;;;;;;;;;20.28;55.36;100739.91;4902086;29;20397;-75
2022/10/05 14:26:52;;;;;;;;;;;;;;;20.45;56.00;100725.91;4903805;29;19922;-75
2022/10/05 14:30:00;;;;;;;;;;;;;;;20.82;55.69;100720.78;4904749;29;19970;-73
2022/10/05 14:33:03;;;;;;;;;;;;;;;20.68;54.82;100715.91;4901540;29;19971;-74
2022/10/05 14:36:16;;;;;;;;;;;;;;;20.66;56.61;100708.06;4888271;29;20382;-74
2022/10/05 14:39:24;;;;;;;;;;;;;;;20.67;56.65;100715.03;4895093;29;19923;-74
2022/10/05 14:42:29;;;;;;;;;;;;;;;20.69;53.80;100722.06;4894507;29;19922;-74
2022/10/05 14:45:34;;;;;;;;;;;;;;;20.69;53.98;100714.09;4902325;29;20094;-74
2022/10/05 14:48:40;;;;;;;;;;;;;;;20.66;53.73;100718.69;4874250;29;19971;-74
2022/10/05 14:51:43;;;;;;;;;;;;;;;20.60;53.92;100719.25;4879366;29;20010;-74
2022/10/05 14:55:01;;;;;;;;;;;;;;;20.72;55.63;100724.44;4900793;29;20343;-74
2022/10/05 14:58:12;;;;;;;;;;;;;;;20.51;59.10;100728.06;4887881;29;20163;-74
2022/10/05 15:01:23;;;;;;;;;;;;;;;20.32;58.33;100718.22;4899948;29;19938;-74
2022/10/05 15:04:41;;;;;;;;;;;;;;;20.85;58.30;100719.66;4900198;29;19970;-74
2022/10/05 15:07:47;;;;;;;;;;;;;;;21.23;57.57;100721.41;4906949;29;20336;-74
2022/10/05 15:10:59;;;;;;;;;;;;;;;21.51;58.06;100719.66;4917136;29;20275;-74
2022/10/05 15:14:10;;;;;;;;;;;;;;;21.68;57.33;100717.19;4923813;29;19973;-74
2022/10/05 15:17:25;;;;;;;;;;;;;;;21.69;57.11;100718.88;4907976;29;19969;-74
2022/10/05 15:20:28;;;;;;;;;;;;;;;21.52;57.60;100721.31;4919809;29;19922;-74
2022/10/05 15:23:46;;;;;;;;;;;;;;;20.49;61.17;100721.19;4921924;29;20378;-74
2022/10/05 15:26:51;;;;;;;;;;;;;;;19.87;63.35;100716.06;4919688;29;19922;-74
2022/10/05 15:30:02;;;;;;;;;;;;;;;19.28;65.92;100714.97;4921534;29;19970;-74
2022/10/05 15:33:08;;;;;;;;;;;;;;;18.81;68.11;100705.75;4922441;29;19929;-75
2022/10/05 15:36:21;;;;;;;;;;;;;;;18.48;69.47;100712.84;4920565;29;19925;-75
2022/10/05 15:39:34;;;;;;;;;;;;;;;18.42;69.27;100704.59;4915075;29;20310;-74
2022/10/05 15:42:40;;;;;;;;;;;;;;;18.31;70.66;100708.97;4921388;29;19970;-74
2022/10/05 15:46:03;;;;;;;;;;;;;;;18.23;70.99;100714.03;4921835;29;19965;-74
2022/10/05 15:49:31;;;;;;;;;;;;;;;18.03;72.04;100723.59;4923574;29;19925;-74
2022/10/05 15:52:39;;;;;;;;;;;;;;;17.85;73.03;100720.59;4918675;29;20279;-74
2022/10/05 15:55:49;;;;;;;;;;;;;;;17.85;72.97;100715.31;4912115;29;19969;-74
2022/10/05 15:59:05;;;;;;;;;;;;;;;17.64;74.28;100719.59;4920394;29;19985;-74
2022/10/05 16:02:16;;;;;;;;;;;;;;;17.66;74.07;100718.53;4924445;29;19958;-74
2022/10/05 16:08:49;;;;;;;;;;;;;;;17.55;74.77;100720.31;4918971;29;19978;-74
2022/10/05 16:08:50;;;;;;;;;;;;;;;17.49;74.99;100721.66;4922920;29;20393;-74
2022/10/05 16:12:03;;;;;;;;;;;;;;;17.34;75.69;100728.97;4904457;29;20006;-74
2022/10/05 16:15:20;;;;;;;;;;;;;;;17.30;75.96;100732.00;4904326;29;19926;-74
2022/10/05 16:18:31;;;;;;;;;;;;;;;17.20;76.19;100737.97;4905440;29;20012;-74
2022/10/05 16:21:40;;;;;;;;;;;;;;;17.10;76.62;100731.72;4901696;29;19926;-74
2022/10/05 16:24:47;;;;;;;;;;;;;;;17.09;77.05;100737.09;4902488;29;19926;-74
2022/10/05 16:28:09;;;;;;;;;;;;;;;16.95;77.75;100744.28;4905090;29;19934;-74
2022/10/05 16:31:19;;;;;;;;;;;;;;;16.85;78.19;100751.22;4560581;29;9999901;-74
2022/10/05 16:34:43;;;;;;;;;;;;;;;16.71;78.69;100752.19;4900834;29;19922;-74
2022/10/05 16:37:56;;;;;;;;;;;;;;;16.65;79.16;100763.22;4902709;29;19914;-74